createdAt,value
2022-12-04T00:01:35.382Z,5.80
2022-12-04T00:04:03.715Z,4.90
2022-12-04T00:06:32.152Z,6.50
2022-12-04T00:09:00.972Z,6.70
2022-12-04T00:11:32.675Z,5.90
2022-12-04T00:14:06.746Z,6.70
2022-12-04T00:16:37.177Z,4.90
2022-12-04T00:19:05.810Z,4.90
2022-12-04T00:21:34.309Z,5.00
2022-12-04T00:24:02.941Z,5.50
2022-12-04T00:26:32.219Z,5.70
2022-12-04T00:29:00.782Z,6.20
2022-12-04T00:31:31.048Z,6.50
2022-12-04T00:34:02.093Z,7.00
2022-12-04T00:36:31.663Z,5.70
2022-12-04T00:39:02.031Z,6.30
2022-12-04T00:41:33.455Z,6.20
2022-12-04T00:44:03.367Z,6.40
2022-12-04T00:46:31.767Z,7.40
2022-12-04T00:49:02.810Z,7.90
2022-12-04T00:51:31.998Z,6.90
2022-12-04T00:54:00.422Z,6.70
2022-12-04T00:56:30.643Z,7.40
2022-12-04T00:59:01.343Z,7.40
2022-12-04T01:01:31.134Z,7.40
2022-12-04T01:04:00.994Z,7.40
2022-12-04T01:06:32.649Z,6.70
2022-12-04T01:09:05.250Z,6.80
2022-12-04T01:11:34.447Z,7.60
2022-12-04T01:14:03.205Z,7.80
2022-12-04T01:16:34.482Z,8.10
2022-12-04T01:19:05.276Z,7.90
2022-12-04T01:21:33.728Z,8.30
2022-12-04T01:24:02.110Z,8.70
2022-12-04T01:26:30.932Z,8.50
2022-12-04T01:28:59.378Z,8.40
2022-12-04T01:31:28.095Z,8.40
2022-12-04T01:33:56.727Z,8.30
2022-12-04T01:36:28.842Z,8.00
2022-12-04T01:38:57.741Z,8.30
2022-12-04T01:41:30.406Z,7.60
2022-12-04T01:44:15.221Z,8.20
2022-12-04T01:46:45.093Z,8.10
2022-12-04T01:49:19.513Z,8.20
2022-12-04T01:51:53.919Z,7.90
2022-12-04T01:54:28.751Z,7.40
2022-12-04T01:57:03.499Z,7.20
2022-12-04T01:59:36.675Z,8.00
2022-12-04T02:02:09.569Z,8.10
2022-12-04T02:04:39.765Z,8.40
2022-12-04T02:07:09.526Z,7.70
2022-12-04T02:09:39.753Z,7.60
2022-12-04T02:12:19.805Z,7.40
2022-12-04T02:14:59.714Z,6.60
2022-12-04T02:17:36.103Z,7.80
2022-12-04T02:20:31.952Z,7.90
2022-12-04T02:23:37.685Z,8.40
2022-12-04T02:26:27.580Z,8.20
2022-12-04T02:29:03.834Z,7.90
2022-12-04T02:31:37.789Z,8.10
2022-12-04T02:34:14.198Z,8.30
2022-12-04T02:36:50.799Z,8.40
2022-12-04T02:39:25.952Z,8.10
2022-12-04T02:42:00.976Z,7.90
2022-12-04T02:44:36.709Z,8.20
2022-12-04T02:47:12.120Z,8.60
2022-12-04T02:49:46.286Z,8.20
2022-12-04T02:52:19.819Z,7.90
2022-12-04T02:54:55.668Z,7.50
2022-12-04T02:57:29.864Z,6.90
2022-12-04T03:00:05.570Z,7.20
2022-12-04T03:02:40.530Z,7.40
2022-12-04T03:05:14.067Z,8.10
2022-12-04T03:07:47.780Z,8.40
2022-12-04T03:10:25.014Z,7.90
2022-12-04T03:12:57.755Z,7.30
2022-12-04T03:15:32.504Z,7.70
2022-12-04T03:18:06.866Z,7.70
2022-12-04T03:20:37.572Z,7.50
2022-12-04T03:23:12.662Z,6.90
2022-12-04T03:25:51.624Z,7.30
2022-12-04T03:28:28.986Z,7.40
2022-12-04T03:31:05.169Z,6.80
2022-12-04T03:33:40.974Z,7.50
2022-12-04T03:36:17.697Z,7.10
2022-12-04T03:38:53.996Z,7.20
2022-12-04T04:20:56.159Z,7.30
2022-12-04T04:23:44.655Z,6.40
2022-12-04T04:26:15.071Z,6.00
2022-12-04T04:28:44.348Z,6.30
2022-12-04T04:31:25.941Z,7.00
2022-12-04T04:34:06.543Z,7.90
2022-12-04T04:36:44.218Z,7.50
2022-12-04T04:39:22.958Z,7.60
2022-12-04T04:41:56.068Z,7.70
2022-12-04T04:44:30.771Z,7.60
2022-12-04T04:47:07.082Z,7.40
2022-12-04T04:49:39.664Z,7.60
2022-12-04T04:52:08.936Z,8.00
2022-12-04T04:54:38.419Z,8.30
2022-12-04T04:57:06.924Z,7.70
2022-12-04T04:59:35.671Z,6.40
2022-12-04T05:02:04.147Z,6.80
2022-12-04T05:04:32.498Z,6.60
2022-12-04T05:07:02.219Z,7.40
2022-12-04T05:09:30.574Z,7.80
2022-12-04T05:11:59.002Z,7.30
2022-12-04T05:14:27.331Z,6.70
2022-12-04T05:16:58.915Z,6.80
2022-12-04T05:19:51.692Z,6.80
2022-12-04T05:22:22.862Z,6.80
2022-12-04T05:24:51.243Z,6.90
2022-12-04T05:27:19.620Z,7.10
2022-12-04T05:29:48.018Z,6.90
2022-12-04T05:32:16.871Z,5.70
2022-12-04T05:34:45.222Z,6.20
2022-12-04T05:37:13.606Z,6.00
2022-12-04T05:39:43.502Z,6.60
2022-12-04T05:42:12.492Z,5.40
2022-12-04T05:44:41.182Z,6.10
2022-12-04T05:47:09.958Z,4.70
2022-12-04T05:49:38.495Z,5.30
2022-12-04T05:52:07.452Z,5.90
2022-12-04T05:54:35.801Z,4.60
2022-12-04T05:57:05.602Z,5.80
2022-12-04T05:59:34.022Z,5.80
2022-12-04T06:02:02.486Z,5.10
2022-12-04T06:04:30.866Z,5.00
2022-12-04T06:06:59.248Z,5.60
2022-12-04T06:09:27.641Z,6.60
2022-12-04T06:11:59.821Z,6.40
2022-12-04T06:14:31.028Z,7.10
2022-12-04T06:17:02.098Z,6.40
2022-12-04T06:19:30.456Z,7.30
2022-12-04T06:21:58.829Z,6.60
2022-12-04T06:24:27.228Z,6.00
2022-12-04T06:27:26.189Z,6.40
2022-12-04T06:29:48.534Z,6.80
2022-12-04T06:32:21.402Z,6.30
2022-12-04T06:34:52.996Z,5.60
2022-12-04T06:37:22.403Z,5.80
2022-12-04T06:39:50.828Z,6.70
2022-12-04T06:42:19.398Z,7.40
2022-12-04T06:44:50.330Z,7.40
2022-12-04T06:47:18.770Z,8.00
2022-12-04T06:49:51.568Z,7.10
2022-12-04T06:52:20.033Z,7.00
2022-12-04T06:54:48.351Z,7.10
2022-12-04T06:57:16.713Z,5.90
2022-12-04T06:59:45.083Z,5.80
2022-12-04T07:02:14.883Z,6.40
2022-12-04T07:04:43.245Z,5.30
2022-12-04T07:07:11.719Z,4.50
2022-12-04T07:09:40.175Z,4.30
2022-12-04T07:12:08.756Z,3.70
2022-12-04T07:14:37.176Z,4.20
2022-12-04T07:17:05.648Z,4.40
2022-12-04T07:19:35.434Z,4.60
2022-12-04T07:22:03.825Z,4.80
2022-12-04T07:24:32.278Z,4.60
2022-12-04T07:27:00.640Z,6.10
2022-12-04T07:29:29.012Z,5.10
2022-12-04T07:31:58.014Z,5.30
2022-12-04T07:34:26.462Z,5.60
2022-12-04T07:36:56.187Z,5.10
2022-12-04T07:39:24.567Z,4.80
2022-12-04T07:41:52.884Z,5.70
2022-12-04T07:44:21.252Z,6.30
2022-12-04T07:46:49.595Z,5.30
2022-12-04T07:49:18.447Z,6.00
2022-12-04T07:51:46.758Z,5.10
2022-12-04T07:54:16.492Z,5.10
2022-12-04T07:56:44.847Z,5.80
2022-12-04T07:59:13.194Z,6.50
2022-12-04T08:01:41.579Z,6.20
2022-12-04T08:04:12.794Z,5.80
2022-12-04T08:06:41.774Z,5.40
2022-12-04T08:09:10.580Z,5.30
2022-12-04T08:11:40.585Z,5.60
2022-12-04T08:14:09.959Z,4.70
2022-12-04T08:16:38.511Z,5.00
2022-12-04T08:19:06.967Z,5.80
2022-12-04T08:21:35.723Z,5.40
2022-12-04T08:24:04.330Z,6.00
2022-12-04T08:26:34.350Z,5.90
2022-12-04T08:29:06.856Z,5.40
2022-12-04T08:31:36.972Z,4.70
2022-12-04T08:34:08.203Z,5.90
2022-12-04T08:36:37.035Z,5.20
2022-12-04T09:31:26.384Z,7.70
2022-12-04T09:33:56.167Z,7.60
2022-12-04T09:36:25.170Z,6.40
2022-12-04T09:38:55.262Z,7.20
2022-12-04T09:41:47.527Z,7.50
2022-12-04T09:44:22.218Z,7.90
2022-12-04T09:46:55.389Z,7.10
2022-12-04T09:49:32.108Z,7.70
2022-12-04T09:52:03.813Z,5.60
2022-12-04T09:54:40.296Z,5.90
2022-12-04T09:57:18.512Z,5.50
2022-12-04T09:59:47.535Z,5.60
2022-12-04T10:02:36.517Z,6.20
2022-12-04T10:05:08.900Z,6.60
2022-12-04T10:07:48.760Z,6.20
2022-12-04T10:10:28.159Z,6.50
2022-12-04T10:13:10.940Z,6.60
2022-12-04T10:15:49.055Z,6.50
2022-12-04T10:18:30.969Z,7.60
2022-12-04T10:21:39.800Z,6.70
2022-12-04T10:24:27.985Z,6.60
2022-12-04T10:27:00.629Z,6.70
2022-12-04T10:29:33.748Z,7.80
2022-12-04T10:32:16.394Z,6.60
2022-12-04T10:34:46.284Z,6.50
2022-12-04T10:37:16.917Z,6.90
2022-12-04T10:39:53.919Z,7.10
2022-12-04T10:42:32.476Z,7.00
2022-12-04T10:45:00.963Z,7.30
2022-12-04T10:47:29.399Z,6.80
2022-12-04T10:50:03.345Z,7.20
2022-12-04T10:52:33.092Z,7.40
2022-12-04T10:55:02.988Z,7.20
2022-12-04T10:57:41.241Z,6.90
2022-12-04T11:00:27.191Z,7.30
2022-12-04T11:02:57.908Z,7.40
2022-12-04T11:05:30.795Z,6.90
2022-12-04T11:08:04.194Z,7.10
2022-12-04T11:10:38.767Z,7.20
2022-12-04T11:13:16.188Z,7.90
2022-12-04T11:15:47.144Z,7.00
2022-12-04T11:18:20.586Z,6.90
2022-12-04T11:20:55.606Z,6.80
2022-12-04T11:23:26.095Z,6.20
2022-12-04T11:26:03.839Z,6.70
2022-12-04T11:28:43.214Z,6.30
2022-12-04T11:31:18.414Z,6.30
2022-12-04T11:33:49.883Z,6.60
2022-12-04T11:36:23.311Z,6.30
2022-12-04T11:38:55.358Z,6.20
2022-12-04T11:41:29.638Z,6.00
2022-12-04T11:44:00.499Z,6.20
2022-12-04T11:46:32.115Z,6.60
2022-12-04T11:49:00.924Z,6.60
2022-12-04T11:51:47.715Z,6.80
2022-12-04T11:54:29.999Z,6.20
2022-12-04T11:57:09.821Z,6.80
2022-12-04T11:59:55.458Z,6.80
2022-12-04T12:02:51.687Z,6.60
2022-12-04T12:05:38.289Z,6.00
2022-12-04T12:08:19.990Z,6.40
2022-12-04T12:10:58.657Z,6.40
2022-12-04T12:13:41.223Z,6.30
2022-12-04T12:16:20.146Z,5.60
2022-12-04T12:19:15.883Z,5.20
2022-12-04T12:21:55.195Z,5.30
2022-12-04T12:24:29.055Z,5.30
2022-12-04T12:27:29.702Z,5.60
2022-12-04T12:30:04.025Z,4.90
2022-12-04T12:32:58.393Z,5.70
2022-12-04T12:35:32.547Z,5.80
2022-12-04T12:38:05.481Z,5.90
2022-12-04T12:40:41.167Z,6.70
2022-12-04T12:43:17.748Z,6.70
2022-12-04T12:45:52.825Z,7.30
2022-12-04T12:48:31.362Z,7.50
2022-12-04T12:51:29.233Z,7.70
2022-12-04T12:54:00.247Z,7.30
2022-12-04T12:56:38.366Z,7.30
2022-12-04T12:59:18.067Z,7.20
2022-12-04T13:01:59.967Z,7.50
2022-12-04T13:04:38.416Z,6.70
2022-12-04T13:07:26.345Z,7.30
2022-12-04T13:10:03.476Z,6.30
2022-12-04T13:12:46.130Z,6.70
2022-12-04T13:15:18.851Z,6.80
2022-12-04T13:17:50.797Z,7.30
2022-12-04T13:20:25.319Z,7.70
2022-12-04T13:23:14.276Z,7.30
2022-12-04T13:25:54.008Z,6.40
2022-12-04T13:28:42.514Z,7.30
2022-12-04T13:31:28.575Z,7.40
2022-12-04T13:34:40.230Z,7.50
2022-12-04T13:37:40.034Z,7.40
2022-12-04T13:40:41.695Z,6.90
2022-12-04T13:43:34.811Z,7.50
2022-12-04T13:46:07.072Z,8.10
2022-12-04T13:48:43.943Z,8.20
2022-12-04T13:51:35.255Z,7.60
2022-12-04T13:54:30.096Z,8.10
2022-12-04T13:57:11.888Z,8.30
2022-12-04T13:59:41.845Z,8.30
2022-12-04T14:02:29.359Z,8.40
2022-12-04T14:05:02.844Z,8.10
2022-12-04T14:07:34.970Z,8.20
2022-12-04T14:10:06.609Z,8.30
2022-12-04T14:12:39.742Z,8.50
2022-12-04T14:15:20.469Z,8.60
2022-12-04T14:18:00.963Z,8.40
2022-12-04T14:20:32.895Z,8.40
2022-12-04T14:23:26.552Z,7.70
2022-12-04T14:25:57.758Z,7.40
2022-12-04T14:28:42.022Z,6.80
2022-12-04T14:31:24.438Z,7.00
2022-12-04T14:33:58.129Z,7.70
2022-12-04T14:36:31.843Z,6.50
2022-12-04T14:39:15.739Z,7.10
2022-12-04T14:41:44.276Z,7.90
2022-12-04T14:44:26.640Z,8.30
2022-12-04T14:47:00.999Z,6.90
2022-12-04T14:49:47.586Z,5.50
2022-12-04T14:52:26.912Z,5.90
2022-12-04T14:55:07.517Z,5.50
2022-12-04T14:57:47.422Z,5.90
2022-12-04T15:00:19.854Z,5.40
2022-12-04T15:02:51.139Z,4.50
2022-12-04T15:05:25.404Z,5.20
2022-12-04T15:07:58.795Z,5.60
2022-12-04T15:10:47.560Z,6.00
2022-12-04T15:13:27.856Z,6.20
2022-12-04T15:15:56.646Z,6.90
2022-12-04T15:18:25.153Z,6.30
2022-12-04T15:21:01.162Z,7.20
2022-12-04T15:23:37.469Z,6.70
2022-12-04T15:26:11.811Z,6.80
2022-12-04T15:28:46.423Z,7.40
2022-12-04T15:31:20.173Z,6.80
2022-12-04T15:33:51.263Z,7.50
2022-12-04T15:36:31.881Z,6.80
2022-12-04T15:39:02.598Z,7.50
2022-12-04T15:41:34.562Z,7.90
2022-12-04T15:44:04.568Z,7.50
2022-12-04T15:46:37.967Z,7.10
2022-12-04T15:49:09.062Z,7.50
2022-12-04T15:51:37.458Z,7.50
2022-12-04T15:54:13.613Z,7.70
2022-12-04T15:56:41.975Z,7.40
2022-12-04T15:59:19.205Z,7.50
2022-12-04T16:01:47.697Z,7.90
2022-12-04T16:04:23.598Z,7.70
2022-12-04T16:06:53.833Z,6.60
2022-12-04T16:09:25.935Z,6.80
2022-12-04T16:12:04.048Z,6.30
2022-12-04T16:14:32.491Z,6.30
2022-12-04T16:17:06.230Z,5.80
2022-12-04T16:19:38.378Z,5.30
2022-12-04T16:22:14.606Z,6.30
2022-12-04T16:24:45.268Z,7.00
2022-12-04T16:27:17.331Z,6.90
2022-12-04T16:29:45.739Z,6.70
2022-12-04T16:32:16.831Z,5.60
2022-12-04T16:34:45.389Z,5.90
2022-12-04T16:37:16.134Z,7.10
2022-12-04T16:39:46.329Z,6.10
2022-12-04T16:42:20.885Z,6.50
2022-12-04T16:44:49.519Z,6.70
2022-12-04T16:47:18.348Z,6.90
2022-12-04T16:49:50.146Z,7.20
2022-12-04T16:52:19.235Z,7.50
2022-12-04T16:54:49.215Z,7.80
2022-12-04T16:57:17.597Z,8.00
2022-12-04T16:59:45.939Z,7.50
2022-12-04T17:02:20.770Z,7.00
2022-12-04T17:04:52.817Z,6.20
2022-12-04T17:07:25.572Z,6.40
2022-12-04T17:09:55.298Z,6.70
2022-12-04T17:12:23.721Z,6.30
2022-12-04T17:14:52.102Z,6.80
2022-12-04T17:17:20.495Z,6.10
2022-12-04T17:19:48.817Z,6.30
2022-12-04T17:22:21.030Z,7.50
2022-12-04T17:24:55.728Z,7.60
2022-12-04T17:27:26.198Z,7.30
2022-12-04T17:29:54.536Z,7.30
2022-12-04T17:32:22.978Z,7.60
2022-12-04T17:34:53.996Z,6.90
2022-12-04T17:37:22.887Z,7.10
2022-12-04T17:39:51.293Z,7.10
2022-12-04T17:42:20.023Z,7.20
2022-12-04T17:44:51.655Z,7.60
2022-12-04T17:47:20.151Z,7.80
2022-12-04T17:49:48.493Z,6.70
2022-12-04T17:52:18.794Z,6.00
2022-12-04T17:54:47.118Z,6.90
2022-12-04T17:57:25.951Z,6.60
2022-12-04T17:59:55.782Z,6.60
2022-12-04T18:02:24.365Z,6.10
2022-12-04T18:04:55.680Z,6.80
2022-12-04T18:07:24.330Z,5.70
2022-12-04T18:09:52.709Z,6.30
2022-12-04T18:12:21.083Z,5.60
